Time;durP1;ratioP1;P1;durP2;ratioP2;P2;SDS_P1;SDS_P2;PMS_P1;PMS_P2;Temp;Humidity;BMP_temperature;BMP_pressure;BME280_temperature;BME280_humidity;BME280_pressure;Samples;Min_cycle;Max_cycle;Signal;HPM_P1;HPM_P2
2021/07/24 00:00:10;;;;;;;8.07;4.50;;;;;;;21.34;57.15;99815.72;5032214;28;20179;-88
2021/07/24 00:02:35;;;;;;;7.55;3.70;;;;;;;21.00;57.74;99787.81;5032497;28;20098;-87
2021/07/24 00:05:01;;;;;;;8.23;4.68;;;;;;;20.76;58.53;99790.81;5030692;28;20123;-88
2021/07/24 00:07:26;;;;;;;8.07;5.20;;;;;;;20.90;58.23;99767.78;5032571;28;20464;-88
2021/07/24 00:09:52;;;;;;;7.72;4.07;;;;;;;21.18;57.28;99767.91;5014621;28;20068;-88
2021/07/24 00:12:17;;;;;;;12.05;5.30;;;;;;;20.81;58.37;99743.03;5032228;28;20025;-88
2021/07/24 00:14:42;;;;;;;10.93;5.03;;;;;;;21.05;58.15;99749.91;5032063;28;20033;-88
2021/07/24 00:17:07;;;;;;;11.10;4.60;;;;;;;21.08;57.67;99746.03;5032323;28;20060;-88
2021/07/24 00:19:33;;;;;;;10.18;5.25;;;;;;;20.87;58.28;99749.47;5026650;28;20030;-87
2021/07/24 00:21:58;;;;;;;8.35;5.13;;;;;;;20.79;58.39;99745.06;5012178;28;20077;-88
2021/07/24 00:24:23;;;;;;;14.25;5.65;;;;;;;20.84;58.48;99726.69;5012139;28;20105;-88
2021/07/24 00:26:49;;;;;;;9.40;5.45;;;;;;;21.23;57.42;99729.94;5012173;28;20030;-88
2021/07/24 00:29:15;;;;;;;9.07;5.97;;;;;;;20.65;59.34;99725.41;5012029;28;20034;-88
2021/07/24 00:31:41;;;;;;;10.88;5.47;;;;;;;20.94;58.80;99707.69;5012120;28;20124;-88
2021/07/24 00:34:07;;;;;;;7.43;5.40;;;;;;;20.72;58.96;99728.19;5015831;28;20484;-88
2021/07/24 00:36:32;;;;;;;7.55;5.70;;;;;;;20.63;59.08;99746.13;5031931;28;20709;-88
2021/07/24 00:38:58;;;;;;;12.43;6.18;;;;;;;20.81;59.35;99785.72;5031747;28;20536;-88
2021/07/24 00:41:30;;;;;;;9.48;6.50;;;;;;;21.22;58.09;99837.78;5031814;28;20109;-88
2021/07/24 00:43:59;;;;;;;8.63;5.93;;;;;;;21.48;56.73;99861.31;5031609;28;20472;-88
2021/07/24 00:46:25;;;;;;;9.63;5.47;;;;;;;21.61;56.53;99898.84;5013948;28;20026;-89
2021/07/24 00:48:52;;;;;;;7.53;5.68;;;;;;;21.74;56.04;99915.03;5027515;28;20026;-88
2021/07/24 00:51:26;;;;;;;10.82;4.93;;;;;;;21.88;55.80;99925.84;5011963;28;20530;-89
2021/07/24 00:53:54;;;;;;;10.35;5.25;;;;;;;21.18;57.88;99946.75;5011938;28;20050;-88
2021/07/24 00:56:19;;;;;;;13.85;6.28;;;;;;;21.33;57.56;99944.09;5011958;28;20030;-88
2021/07/24 00:58:45;;;;;;;8.70;5.75;;;;;;;21.45;57.33;99942.63;5012146;28;20089;-88
2021/07/24 01:01:10;;;;;;;12.38;6.13;;;;;;;21.23;57.86;99923.03;5011946;28;20025;-87
2021/07/24 01:03:35;;;;;;;11.88;5.97;;;;;;;21.54;56.65;99930.00;5012914;28;20030;-88
2021/07/24 01:06:01;;;;;;;11.85;5.88;;;;;;;21.53;57.04;99941.72;5011885;28;20026;-88
2021/07/24 01:08:31;;;;;;;12.98;6.25;;;;;;;21.48;56.82;99962.78;5011945;28;20026;-88
2021/07/24 01:10:56;;;;;;;8.35;5.57;;;;;;;21.30;57.63;99971.97;5011851;28;20022;-88
2021/07/24 01:13:22;;;;;;;11.35;5.45;;;;;;;21.26;57.52;99992.06;5011969;28;20076;-88
2021/07/24 01:15:49;;;;;;;7.88;5.45;;;;;;;21.70;56.57;99999.25;5011759;28;20029;-88
2021/07/24 01:18:15;;;;;;;17.60;6.20;;;;;;;21.50;57.30;100019.53;5027177;28;20061;-88
2021/07/24 01:20:41;;;;;;;7.72;5.47;;;;;;;21.33;57.45;100017.03;5011762;28;20064;-88
2021/07/24 01:23:08;;;;;;;7.07;5.10;;;;;;;21.51;56.71;100006.00;5011617;28;20353;-88
2021/07/24 01:25:41;;;;;;;8.18;5.70;;;;;;;21.90;55.92;100009.34;5011628;28;20053;-88
2021/07/24 01:28:06;;;;;;;13.02;5.85;;;;;;;21.83;55.81;100003.09;5011669;28;20100;-89
2021/07/24 01:30:32;;;;;;;13.65;5.90;;;;;;;21.74;55.77;99984.50;5011613;28;20476;-88
2021/07/24 01:32:57;;;;;;;9.60;5.03;;;;;;;21.91;55.83;99978.94;5011579;28;20021;-88
2021/07/24 01:35:22;;;;;;;18.63;6.43;;;;;;;21.90;55.39;99971.91;5031007;28;20033;-88
2021/07/24 01:37:48;;;;;;;7.15;5.50;;;;;;;21.88;55.42;99952.56;5031329;28;20503;-88
2021/07/24 01:40:13;;;;;;;11.93;5.65;;;;;;;21.95;55.33;99948.94;5031414;28;20708;-88
2021/07/24 01:42:38;;;;;;;11.77;5.72;;;;;;;21.96;54.79;99942.59;5031500;28;20018;-88
2021/07/24 01:45:04;;;;;;;7.70;5.65;;;;;;;21.96;55.06;99941.78;5031245;28;20391;-88
2021/07/24 01:47:29;;;;;;;11.45;4.93;;;;;;;22.04;54.75;99920.28;5031172;28;20476;-88
2021/07/24 01:52:48;;;;;;;12.35;6.20;;;;;;;21.94;55.17;99903.72;5011400;28;20518;-88
2021/07/24 01:55:33;;;;;;;8.02;5.35;;;;;;;22.07;55.02;99895.81;4996342;28;20030;-88
2021/07/24 01:58:02;;;;;;;7.47;5.47;;;;;;;21.96;55.63;99896.34;5014981;28;20021;-89
2021/07/24 02:00:29;;;;;;;9.73;5.53;;;;;;;21.87;56.19;99924.19;5014766;28;20391;-89
2021/07/24 02:02:55;;;;;;;10.77;5.88;;;;;;;21.83;56.70;99938.97;5018172;28;20024;-89
2021/07/24 02:05:41;;;;;;;6.80;4.75;;;;;;;22.12;55.75;99946.88;5034250;28;20068;-88
2021/07/24 02:08:09;;;;;;;7.60;5.45;;;;;;;21.95;57.22;99937.44;5034415;28;20036;-89
2021/07/24 02:10:34;;;;;;;7.63;5.45;;;;;;;21.97;57.08;99948.78;5034425;28;20083;-88
2021/07/24 02:13:00;;;;;;;9.80;5.60;;;;;;;21.84;57.47;99962.84;5034854;28;20025;-88
2021/07/24 02:15:26;;;;;;;7.65;5.38;;;;;;;21.75;57.01;99964.78;5032739;28;20026;-88
2021/07/24 02:17:51;;;;;;;12.70;5.93;;;;;;;21.62;56.96;99969.13;5034325;28;20212;-88
2021/07/24 02:20:21;;;;;;;7.93;5.55;;;;;;;21.56;57.12;99954.66;5034551;28;20379;-88
2021/07/24 02:22:47;;;;;;;9.63;5.93;;;;;;;21.60;57.79;99939.94;5033973;28;20030;-89
2021/07/24 02:25:13;;;;;;;11.55;6.50;;;;;;;21.55;58.44;99937.81;5016443;28;20083;-88
2021/07/24 02:27:46;;;;;;;14.65;5.80;;;;;;;21.72;58.83;99937.59;5034080;28;20492;-88
2021/07/24 02:30:13;;;;;;;10.75;6.05;;;;;;;21.57;60.99;99924.28;5034236;28;20033;-88
2021/07/24 02:32:38;;;;;;;7.13;5.72;;;;;;;21.52;59.78;99918.66;5034209;28;20029;-88
2021/07/24 02:35:04;;;;;;;11.48;7.07;;;;;;;20.98;63.81;99912.63;5034001;28;20022;-88
2021/07/24 02:37:29;;;;;;;9.48;6.18;;;;;;;21.30;61.92;99909.75;5015409;28;20033;-88
2021/07/24 02:39:55;;;;;;;10.25;6.32;;;;;;;21.28;62.81;99911.78;5016232;28;20078;-88
2021/07/24 02:42:20;;;;;;;8.35;5.88;;;;;;;21.12;64.00;99907.47;5033907;28;20108;-88
2021/07/24 02:44:45;;;;;;;10.05;5.57;;;;;;;21.17;63.43;99913.09;5033791;28;20108;-88
2021/07/24 02:47:11;;;;;;;13.40;6.15;;;;;;;20.94;64.80;99900.66;5031648;28;20140;-88
2021/07/24 02:49:37;;;;;;;8.18;5.90;;;;;;;21.04;63.66;99908.38;5013896;28;20071;-88
2021/07/24 02:52:03;;;;;;;8.55;6.47;;;;;;;20.89;63.21;99916.41;5013892;28;20076;-88
2021/07/24 02:54:28;;;;;;;9.27;7.18;;;;;;;20.90;63.95;99922.56;5013708;28;20089;-88
2021/07/24 02:56:53;;;;;;;10.13;6.32;;;;;;;20.71;63.74;99926.59;5013741;28;20033;-88
2021/07/24 02:59:19;;;;;;;10.40;7.15;;;;;;;20.69;64.49;99925.94;5013799;28;20030;-88
2021/07/24 03:01:44;;;;;;;11.23;6.78;;;;;;;20.75;64.23;99925.22;5013835;28;20030;-88
2021/07/24 03:04:10;;;;;;;12.35;6.68;;;;;;;20.82;64.80;99914.66;5033460;28;20025;-88
2021/07/24 03:06:35;;;;;;;13.23;6.80;;;;;;;20.59;64.59;99905.69;5032331;28;20068;-88
2021/07/24 03:09:03;;;;;;;10.77;7.45;;;;;;;20.58;66.32;99890.66;5033543;28;20388;-89
2021/07/24 03:11:28;;;;;;;12.18;8.63;;;;;;;20.01;68.25;99868.00;5033346;28;20017;-88
2021/07/24 03:13:53;;;;;;;15.05;9.10;;;;;;;20.35;67.87;99866.72;5033161;28;20025;-88
2021/07/24 03:16:19;;;;;;;14.30;8.52;;;;;;;20.71;66.56;99850.03;5033322;28;20044;-88
2021/07/24 03:18:44;;;;;;;12.68;8.57;;;;;;;20.45;67.64;99858.47;5014346;28;20022;-88
2021/07/24 03:21:09;;;;;;;13.77;8.40;;;;;;;20.31;67.48;99880.59;5013303;28;20399;-87
2021/07/24 03:23:35;;;;;;;15.27;8.40;;;;;;;19.99;68.99;99851.38;5013414;28;20492;-87
2021/07/24 03:26:00;;;;;;;13.75;8.40;;;;;;;20.30;68.85;99845.13;5013197;28;20392;-87
2021/07/24 03:28:25;;;;;;;13.30;8.93;;;;;;;20.36;68.44;99838.25;5013251;28;20469;-87
2021/07/24 03:30:51;;;;;;;15.82;9.32;;;;;;;20.28;69.12;99825.81;4995554;28;20026;-88
2021/07/24 03:33:16;;;;;;;13.23;9.10;;;;;;;20.13;69.54;99839.09;5029869;28;20026;-87
2021/07/24 03:35:41;;;;;;;19.67;9.15;;;;;;;20.16;70.19;99844.09;5024990;28;20075;-87
2021/07/24 03:38:07;;;;;;;12.70;9.38;;;;;;;19.92;71.15;99852.25;4995391;28;20071;-87
2021/07/24 03:40:32;;;;;;;17.38;9.98;;;;;;;20.24;68.89;99863.66;4995453;28;20030;-87
2021/07/24 03:42:58;;;;;;;12.57;9.52;;;;;;;20.33;68.90;99863.41;5012902;28;20486;-87
2021/07/24 03:45:23;;;;;;;13.00;9.60;;;;;;;20.30;69.15;99834.47;5012963;28;20036;-88
2021/07/24 03:47:49;;;;;;;16.60;10.15;;;;;;;20.45;69.12;99823.78;5012998;28;20034;-88
2021/07/24 03:50:14;;;;;;;14.30;9.98;;;;;;;20.21;70.08;99844.34;5018467;28;20034;-88
2021/07/24 03:52:39;;;;;;;15.57;10.70;;;;;;;20.26;69.24;99843.81;5032543;28;20483;-88
2021/07/24 03:55:05;;;;;;;15.68;9.82;;;;;;;20.24;69.40;99842.31;5032441;28;20025;-87
2021/07/24 03:57:30;;;;;;;13.30;10.07;;;;;;;20.42;68.79;99813.50;5032442;28;20365;-87
2021/07/24 03:59:55;;;;;;;27.08;10.88;;;;;;;20.57;68.68;99795.66;5028469;28;20112;-88
2021/07/24 04:02:23;;;;;;;15.77;11.00;;;;;;;20.49;69.13;99789.59;5012386;28;20789;-88
2021/07/24 04:04:52;;;;;;;15.85;10.20;;;;;;;20.53;68.15;99796.22;5012580;28;20080;-88
2021/07/24 04:07:19;;;;;;;13.38;10.60;;;;;;;20.21;69.82;99780.38;5012443;28;20116;-88
2021/07/24 04:09:45;;;;;;;16.83;11.10;;;;;;;20.15;70.29;99769.63;5012502;28;20075;-88
2021/07/24 04:12:10;;;;;;;14.10;10.55;;;;;;;19.77;71.07;99789.13;5012420;28;20061;-88
2021/07/24 04:14:36;;;;;;;16.00;9.93;;;;;;;19.62;71.31;99817.50;5014712;28;20037;-87
2021/07/24 04:17:01;;;;;;;16.92;11.25;;;;;;;19.44;73.13;99847.06;5031730;28;20314;-87
2021/07/24 04:19:26;;;;;;;15.40;10.70;;;;;;;20.03;70.15;99869.69;5032280;28;20436;-88
2021/07/24 04:21:52;;;;;;;19.88;10.52;;;;;;;20.15;69.80;99863.72;5032203;28;20029;-88
2021/07/24 04:24:18;;;;;;;15.43;10.77;;;;;;;19.87;70.94;99870.63;5032011;28;20205;-88
2021/07/24 04:26:43;;;;;;;18.75;11.00;;;;;;;20.11;69.47;99865.09;5031892;28;20159;-88
2021/07/24 04:29:09;;;;;;;14.48;10.65;;;;;;;20.08;70.52;99865.44;5030917;28;20026;-88
2021/07/24 04:31:36;;;;;;;15.65;11.90;;;;;;;20.01;70.41;99876.00;5012189;28;20022;-88
2021/07/24 04:34:02;;;;;;;17.77;10.63;;;;;;;20.03;70.13;99875.00;5012207;28;20032;-88
2021/07/24 04:36:27;;;;;;;17.02;11.70;;;;;;;20.13;69.73;99878.25;5012219;28;20112;-88
2021/07/24 04:38:52;;;;;;;17.33;11.98;;;;;;;19.87;71.20;99887.44;5012154;28;20030;-88
2021/07/24 04:41:18;;;;;;;21.08;11.40;;;;;;;19.85;72.07;99888.63;5012053;28;20060;-89
2021/07/24 04:43:44;;;;;;;22.33;12.48;;;;;;;19.85;72.54;99883.31;5012176;28;20277;-88
2021/07/24 04:46:10;;;;;;;24.38;13.52;;;;;;;19.78;73.08;99875.19;5031212;28;20052;-88
2021/07/24 04:48:36;;;;;;;29.30;14.32;;;;;;;19.72;73.45;99876.72;5031809;28;20040;-87
2021/07/24 04:51:01;;;;;;;17.98;11.75;;;;;;;19.64;74.96;99862.59;5031810;28;20029;-88
2021/07/24 04:53:27;;;;;;;21.35;12.50;;;;;;;19.78;73.47;99857.34;5031686;28;20025;-88
2021/07/24 04:55:52;;;;;;;19.75;12.48;;;;;;;19.38;75.54;99829.13;5014800;28;20042;-88
2021/07/24 04:58:18;;;;;;;22.95;12.57;;;;;;;19.27;75.95;99824.19;5011809;28;20025;-88
2021/07/24 05:00:46;;;;;;;18.20;12.95;;;;;;;19.38;75.94;99783.88;5011965;28;20025;-87
2021/07/24 05:03:15;;;;;;;21.40;13.48;;;;;;;19.19;77.11;99761.19;5011943;28;20032;-87
2021/07/24 05:05:42;;;;;;;20.17;13.02;;;;;;;19.20;78.20;99745.06;5011879;28;20361;-87
2021/07/24 05:08:08;;;;;;;16.77;12.05;;;;;;;19.10;77.25;99762.28;5011797;28;20030;-88
2021/07/24 05:10:35;;;;;;;18.80;11.18;;;;;;;19.32;76.58;99742.81;5027378;28;20033;-87
2021/07/24 05:13:00;;;;;;;17.60;9.75;;;;;;;18.97;77.22;99790.25;5031473;28;20097;-88
2021/07/24 05:15:26;;;;;;;15.48;10.20;;;;;;;18.95;76.98;99794.91;5031675;28;20541;-87
2021/07/24 05:17:51;;;;;;;16.33;9.13;;;;;;;19.55;74.15;99779.25;5031645;28;20496;-87
2021/07/24 05:20:17;;;;;;;17.60;11.00;;;;;;;19.75;73.58;99766.34;5031444;28;20030;-87
2021/07/24 05:22:42;;;;;;;16.27;10.52;;;;;;;19.32;75.05;99736.69;5031341;28;20100;-88
2021/07/24 05:25:08;;;;;;;14.00;10.27;;;;;;;19.02;74.05;99716.09;5031371;28;20033;-88
2021/07/24 05:27:34;;;;;;;16.83;9.38;;;;;;;19.28;74.41;99724.75;5012607;28;20044;-88
2021/07/24 05:29:59;;;;;;;13.65;10.90;;;;;;;19.28;74.26;99768.13;5013951;28;20480;-88
2021/07/24 05:32:24;;;;;;;14.27;10.07;;;;;;;19.35;74.32;99707.03;5015537;28;20025;-88
2021/07/24 05:34:50;;;;;;;17.38;10.77;;;;;;;19.38;74.68;99669.41;5015247;28;20080;-89
2021/07/24 05:37:15;;;;;;;20.25;10.07;;;;;;;19.03;74.39;99661.84;5015267;28;20029;-88
2021/07/24 05:39:40;;;;;;;18.27;10.55;;;;;;;19.00;75.04;99779.28;5015338;28;20105;-88
2021/07/24 05:42:06;;;;;;;14.35;9.30;;;;;;;19.17;73.63;99769.38;5031428;28;20057;-88
2021/07/24 05:44:32;;;;;;;14.60;10.35;;;;;;;18.99;74.05;99761.66;5034959;28;20052;-87
2021/07/24 05:46:59;;;;;;;18.88;10.27;;;;;;;19.06;74.21;99726.38;5035003;28;20029;-88
2021/07/24 05:49:25;;;;;;;15.82;10.77;;;;;;;19.53;73.19;99744.84;5035014;28;20060;-88
2021/07/24 05:51:50;;;;;;;21.67;9.35;;;;;;;18.70;74.65;99753.44;5034836;28;20449;-87
2021/07/24 05:54:17;;;;;;;17.42;9.20;;;;;;;18.95;74.62;99760.34;5034649;28;20030;-88
2021/07/24 05:56:43;;;;;;;13.50;9.88;;;;;;;19.26;74.80;99724.09;5019420;28;20030;-88
2021/07/24 05:59:08;;;;;;;13.00;8.45;;;;;;;19.32;73.88;99729.53;5016705;28;20132;-87
2021/07/24 06:01:34;;;;;;;13.55;8.80;;;;;;;19.17;72.94;99748.09;5014196;28;20498;-88
2021/07/24 06:03:59;;;;;;;14.95;9.30;;;;;;;19.40;72.78;99756.06;5014085;28;20014;-89
2021/07/24 06:06:25;;;;;;;15.40;10.65;;;;;;;19.72;71.24;99753.38;5013950;28;20468;-88
2021/07/24 06:08:50;;;;;;;15.65;8.50;;;;;;;19.47;72.20;99739.38;5020950;28;20044;-88
2021/07/24 06:11:15;;;;;;;10.40;7.70;;;;;;;19.39;72.38;99742.94;5032583;28;20064;-88
2021/07/24 06:13:41;;;;;;;10.88;8.15;;;;;;;18.89;73.96;99744.25;5032049;28;20025;-88
2021/07/24 06:16:09;;;;;;;11.48;7.80;;;;;;;19.52;72.41;99737.03;5035454;28;20036;-95
2021/07/24 06:18:35;;;;;;;16.02;9.32;;;;;;;19.58;72.80;99731.81;5019689;28;20041;-96
2021/07/24 06:21:00;;;;;;;10.68;8.00;;;;;;;19.52;72.48;99745.00;5024081;28;20026;-96
2021/07/24 06:23:26;;;;;;;11.32;8.50;;;;;;;19.50;72.06;99747.03;5207115;22;20101;-96
2021/07/24 06:25:51;;;;;;;11.00;7.75;;;;;;;19.42;72.88;99754.06;5004609;28;20416;-96
2021/07/24 06:28:17;;;;;;;11.77;8.23;;;;;;;19.32;71.64;99748.16;5029940;28;20457;-95
2021/07/24 06:30:42;;;;;;;14.60;8.27;;;;;;;19.46;71.95;99748.41;4999485;28;20030;-95
2021/07/24 06:33:08;;;;;;;16.88;8.85;;;;;;;19.63;71.61;99768.56;5015439;28;20029;-94
2021/07/24 06:35:34;;;;;;;14.27;8.27;;;;;;;19.38;71.35;99766.06;5021923;28;20026;-96
2021/07/24 06:37:59;;;;;;;11.10;8.25;;;;;;;19.26;72.82;99746.19;5006383;28;20097;-95
2021/07/24 06:40:25;;;;;;;13.55;9.20;;;;;;;19.20;73.98;99750.38;5010184;28;20388;-96
2021/07/24 06:42:51;;;;;;;13.95;9.63;;;;;;;19.25;74.38;99757.00;4991509;28;20476;-95
2021/07/24 06:45:17;;;;;;;13.77;9.63;;;;;;;19.76;71.46;99752.81;5006576;28;20125;-96
2021/07/24 06:47:42;;;;;;;11.68;8.95;;;;;;;19.97;70.93;99767.31;5008610;28;20089;-96
2021/07/24 06:50:08;;;;;;;13.73;9.30;;;;;;;20.01;70.94;99760.59;5014195;28;20560;-96
2021/07/24 06:52:33;;;;;;;12.68;8.60;;;;;;;20.09;69.76;99767.69;5017682;28;20037;-96
2021/07/24 06:54:59;;;;;;;13.10;9.48;;;;;;;20.23;69.95;99769.53;5028718;28;20042;-96
2021/07/24 06:57:24;;;;;;;10.98;9.10;;;;;;;20.24;68.29;99773.03;5025614;28;20030;-96
2021/07/24 06:59:50;;;;;;;12.85;8.80;;;;;;;20.45;67.83;99775.78;4996991;28;20046;-96
2021/07/24 07:02:15;;;;;;;12.43;8.73;;;;;;;20.58;67.80;99783.97;5000350;28;20034;-96
2021/07/24 07:04:41;;;;;;;12.20;8.93;;;;;;;20.33;68.66;99783.41;5016165;28;20021;-96
2021/07/24 07:07:09;;;;;;;11.23;8.55;;;;;;;20.31;68.78;99784.63;4978397;28;20029;-96
2021/07/24 07:09:35;;;;;;;13.32;8.88;;;;;;;20.30;68.49;99794.47;5008817;28;20480;-93
2021/07/24 07:12:01;;;;;;;11.93;8.32;;;;;;;19.92;69.59;99802.47;4994208;28;20040;-94
2021/07/24 07:14:27;;;;;;;14.65;9.77;;;;;;;19.92;70.32;99801.66;4990509;28;20022;-93
2021/07/24 07:16:53;;;;;;;13.63;10.30;;;;;;;20.00;69.15;99806.91;4975778;28;20053;-92
2021/07/24 07:19:19;;;;;;;11.57;8.65;;;;;;;20.34;67.84;99802.91;5007160;28;20057;-92
2021/07/24 07:21:45;;;;;;;11.68;8.57;;;;;;;20.04;69.21;99805.53;5007466;28;20022;-94
2021/07/24 07:24:11;;;;;;;16.30;8.43;;;;;;;20.03;69.40;99808.38;5011618;28;20025;-94
2021/07/24 07:26:37;;;;;;;10.68;8.73;;;;;;;19.91;69.45;99800.81;5011474;28;20105;-95
2021/07/24 07:29:03;;;;;;;16.25;8.77;;;;;;;19.87;68.77;99809.38;5001602;28;20034;-94
2021/07/24 07:31:33;;;;;;;9.82;7.68;;;;;;;20.37;68.17;99805.22;4994074;28;20046;-93
2021/07/24 07:33:59;;;;;;;14.35;7.95;;;;;;;20.37;68.42;99814.03;4993126;28;20034;-92
2021/07/24 07:36:24;;;;;;;12.00;8.45;;;;;;;20.31;67.76;99806.78;4995641;28;20110;-94
2021/07/24 07:38:50;;;;;;;12.00;8.45;;;;;;;20.19;68.17;99813.56;5011434;28;20022;-94
2021/07/24 07:41:17;;;;;;;10.95;8.18;;;;;;;20.56;67.38;99815.34;5011331;28;20740;-95
2021/07/24 07:43:43;;;;;;;12.15;9.07;;;;;;;20.43;67.82;99807.16;4983049;28;20080;-94
2021/07/24 07:46:08;;;;;;;12.30;8.27;;;;;;;20.65;67.01;99807.28;4993390;28;20092;-95
2021/07/24 07:48:35;;;;;;;15.60;8.88;;;;;;;20.55;66.96;99797.69;4999996;28;20384;-94
2021/07/24 07:51:01;;;;;;;11.88;9.25;;;;;;;20.47;67.83;99797.78;5006096;28;20037;-94
2021/07/24 07:53:26;;;;;;;14.00;9.30;;;;;;;20.55;67.46;99803.00;4995315;28;20026;-94
2021/07/24 07:55:51;;;;;;;11.57;9.32;;;;;;;20.83;67.48;99791.72;5009602;28;20022;-95
2021/07/24 07:58:17;;;;;;;12.48;9.25;;;;;;;20.95;67.19;99798.25;4995417;28;20076;-94
2021/07/24 08:00:42;;;;;;;11.73;7.90;;;;;;;20.59;67.35;99799.00;5012697;28;20022;-92
2021/07/24 08:03:07;;;;;;;10.25;8.65;;;;;;;21.09;66.99;99798.38;4994670;28;20373;-93
2021/07/24 08:05:33;;;;;;;10.40;7.45;;;;;;;21.30;65.92;99806.44;4995070;28;20026;-95
2021/07/24 08:07:58;;;;;;;13.18;8.68;;;;;;;21.30;65.63;99809.09;5012274;28;20037;-94
2021/07/24 08:10:24;;;;;;;13.10;9.20;;;;;;;21.12;65.41;99803.34;5012554;28;20069;-93
2021/07/24 08:12:51;;;;;;;12.70;9.27;;;;;;;21.25;65.33;99810.69;5012518;28;20026;-95
2021/07/24 08:15:16;;;;;;;13.68;8.80;;;;;;;20.98;66.20;99802.38;5013194;28;20021;-94
2021/07/24 08:17:42;;;;;;;10.68;7.75;;;;;;;21.09;65.90;99803.72;5012258;28;20077;-93
2021/07/24 08:20:08;;;;;;;12.57;8.25;;;;;;;20.97;65.92;99808.72;5012484;28;20030;-94
2021/07/24 08:22:34;;;;;;;15.18;9.15;;;;;;;20.29;68.29;99798.13;5012450;28;20096;-95
2021/07/24 08:24:59;;;;;;;14.52;8.80;;;;;;;20.39;67.77;99787.19;5012688;28;20472;-95
2021/07/24 08:27:25;;;;;;;15.68;10.23;;;;;;;20.73;67.18;99805.34;5012491;28;20034;-93
2021/07/24 08:29:52;;;;;;;9.40;8.40;;;;;;;20.59;67.33;99792.84;5011560;28;20105;-95
2021/07/24 08:32:17;;;;;;;11.60;8.40;;;;;;;20.84;66.73;99793.38;5011272;28;20087;-95
2021/07/24 08:34:43;;;;;;;13.20;9.77;;;;;;;20.65;66.92;99785.94;5011771;28;20034;-93
2021/07/24 08:37:09;;;;;;;12.77;8.95;;;;;;;20.83;66.71;99794.38;5011971;28;20025;-92
2021/07/24 08:39:35;;;;;;;14.77;8.73;;;;;;;21.07;66.17;99792.41;5009315;28;20056;-94
2021/07/24 08:42:03;;;;;;;17.30;9.48;;;;;;;21.14;65.67;99793.31;5011723;28;20032;-93
2021/07/24 08:44:28;;;;;;;14.98;10.15;;;;;;;20.82;66.13;99782.06;5008546;28;20464;-92
2021/07/24 08:46:55;;;;;;;12.60;9.18;;;;;;;20.81;66.68;99783.06;5011285;28;20038;-94
2021/07/24 08:49:20;;;;;;;13.98;9.90;;;;;;;20.70;67.32;99784.38;4992010;28;20029;-95
2021/07/24 08:51:48;;;;;;;10.27;8.77;;;;;;;21.10;66.52;99786.72;4994719;28;20034;-95
2021/07/24 08:54:14;;;;;;;13.65;10.07;;;;;;;20.96;66.61;99780.38;5013143;28;20273;-93
2021/07/24 08:56:45;;;;;;;12.30;10.00;;;;;;;20.86;67.83;99783.34;5010915;28;20408;-95
2021/07/24 08:59:14;;;;;;;12.80;10.00;;;;;;;20.69;67.69;99792.56;5011515;28;20472;-95
2021/07/24 09:01:40;;;;;;;13.10;9.30;;;;;;;20.87;67.01;99786.84;5002186;28;20034;-95
2021/07/24 09:04:07;;;;;;;20.23;11.90;;;;;;;20.68;68.57;99785.59;5012580;28;20037;-94
2021/07/24 09:06:32;;;;;;;13.23;10.13;;;;;;;20.74;67.34;99785.66;5011431;28;20044;-93
2021/07/24 09:08:58;;;;;;;14.43;9.88;;;;;;;21.11;66.27;99783.00;5014592;28;20030;-93
2021/07/24 09:11:23;;;;;;;13.55;10.30;;;;;;;21.12;66.38;99784.69;5015606;28;20468;-92
2021/07/24 09:13:49;;;;;;;15.07;8.95;;;;;;;21.17;66.20;99784.94;5014725;28;20034;-94
2021/07/24 09:16:16;;;;;;;13.20;9.57;;;;;;;21.36;65.98;99773.63;5013448;28;20044;-94
2021/07/24 09:18:41;;;;;;;18.33;10.05;;;;;;;21.47;65.79;99782.22;5008157;28;20022;-92
2021/07/24 09:21:07;;;;;;;13.50;9.57;;;;;;;21.33;66.41;99776.69;5010930;28;20419;-94
2021/07/24 09:23:36;;;;;;;12.27;9.02;;;;;;;21.59;65.71;99786.00;5010662;28;20018;-95
2021/07/24 09:26:04;;;;;;;16.13;10.52;;;;;;;21.62;65.47;99782.13;4996004;28;20029;-96
2021/07/24 09:28:30;;;;;;;17.92;10.10;;;;;;;21.48;65.68;99786.50;5006357;28;20037;-96
2021/07/24 09:30:55;;;;;;;14.55;9.43;;;;;;;21.70;64.48;99782.00;5008464;28;20026;-96
2021/07/24 09:33:21;;;;;;;14.98;10.05;;;;;;;21.71;64.72;99773.78;5013951;28;20037;-93
2021/07/24 09:35:49;;;;;;;15.10;9.40;;;;;;;21.99;64.39;99781.00;4998488;28;20030;-95
2021/07/24 09:38:26;;;;;;;14.32;10.13;;;;;;;21.86;64.21;99783.56;5013183;28;20484;-96
2021/07/24 09:40:53;;;;;;;15.43;10.70;;;;;;;21.76;64.02;99779.41;5015395;28;20113;-95
2021/07/24 09:43:31;;;;;;;14.60;9.98;;;;;;;21.96;63.74;99789.44;5014266;28;20025;-95
2021/07/24 09:46:16;;;;;;;13.50;9.88;;;;;;;21.83;64.65;99781.28;4997291;28;20732;-94
2021/07/24 09:48:46;;;;;;;10.05;8.35;;;;;;;21.74;64.26;99791.28;5013720;28;20072;-96
2021/07/24 09:51:16;;;;;;;12.05;9.15;;;;;;;21.75;64.44;99792.94;5015603;28;20026;-94
2021/07/24 09:53:42;;;;;;;13.50;9.85;;;;;;;21.86;64.39;99786.25;5015092;28;20026;-95
2021/07/24 09:56:15;;;;;;;13.80;9.98;;;;;;;21.72;64.78;99780.81;5015927;28;20022;-96
2021/07/24 09:58:46;;;;;;;14.65;9.63;;;;;;;21.87;64.77;99782.56;5016122;28;20022;-96
2021/07/24 10:01:15;;;;;;;;;;;;;;;21.99;64.51;99799.72;5013064;28;20029;-95
2021/07/24 10:03:41;;;;;;;15.73;11.77;;;;;;;21.71;64.40;99792.50;5019111;28;19921;-94
2021/07/24 10:06:17;;;;;;;17.60;11.27;;;;;;;21.50;65.11;99795.97;5001726;28;20049;-95
2021/07/24 10:08:47;;;;;;;18.92;11.50;;;;;;;21.85;64.69;99792.63;5002959;28;20069;-96
2021/07/24 10:11:13;;;;;;;19.17;11.50;;;;;;;21.62;65.00;99798.97;5009183;28;20534;-94
2021/07/24 10:13:40;;;;;;;19.80;11.95;;;;;;;21.52;65.47;99798.47;5014226;28;20061;-93
2021/07/24 10:16:06;;;;;;;16.90;11.65;;;;;;;21.60;64.98;99798.34;4997152;28;20026;-95
2021/07/24 10:18:35;;;;;;;18.23;11.18;;;;;;;21.59;65.21;99797.53;4995106;28;20022;-96
2021/07/24 10:21:01;;;;;;;19.45;11.48;;;;;;;21.60;65.42;99798.34;5001315;28;20030;-96
2021/07/24 10:23:28;;;;;;;17.17;11.95;;;;;;;21.62;65.53;99788.28;4996612;28;20506;-94
2021/07/24 10:26:10;;;;;;;17.48;11.57;;;;;;;21.79;65.30;99789.69;5010556;28;20042;-95
2021/07/24 10:28:39;;;;;;;19.38;12.07;;;;;;;21.87;65.13;99793.25;4998033;28;20026;-95
2021/07/24 10:33:40;;;;;;;23.23;12.52;;;;;;;21.59;65.49;99802.88;5874943;23;20036;-96
2021/07/24 10:36:10;;;;;;;20.02;11.15;;;;;;;21.73;65.09;99793.13;5043385;22;20045;-93
2021/07/24 10:38:36;;;;;;;14.95;11.85;;;;;;;21.82;64.73;99784.97;5053417;28;20033;-96
2021/07/24 10:41:23;;;;;;;18.30;12.07;;;;;;;21.94;64.53;99807.50;5057062;28;20071;-96
2021/07/24 10:46:55;;;;;;;18.67;11.68;;;;;;;21.82;64.81;99804.53;5596560;22;20024;-95
2021/07/24 10:57:06;;;;;;;16.58;11.95;;;;;;;22.07;63.94;99794.22;5686750;22;20041;-96
2021/07/24 10:59:32;;;;;;;19.83;11.85;;;;;;;22.21;63.59;99775.59;5024267;28;20026;-94
2021/07/24 11:01:59;;;;;;;16.85;12.82;;;;;;;22.15;64.62;99798.59;5021471;28;20022;-94
2021/07/24 11:04:37;;;;;;;19.90;12.80;;;;;;;22.46;63.74;99786.72;5032315;28;20037;-93
2021/07/24 11:51:11;;;;;;;23.75;17.27;;;;;;;22.36;66.81;99795.91;5639245;22;20513;-96
2021/07/24 11:56:17;;;;;;;21.67;16.80;;;;;;;22.34;66.28;99781.09;6104800;23;20474;-96
2021/07/24 12:11:35;;;;;;;23.25;17.63;;;;;;;22.59;68.34;99768.06;5871576;23;20119;-96
2021/07/24 12:24:28;;;;;;;21.42;15.93;;;;;;;23.61;66.70;99782.38;1019869;23;22321;-95
2021/07/24 12:27:14;;;;;;;23.05;16.77;;;;;;;23.71;65.40;99796.19;5034820;28;20038;-96
2021/07/24 12:29:46;;;;;;;19.55;15.10;;;;;;;24.09;64.84;99801.00;5037261;28;20025;-95
2021/07/24 12:32:11;;;;;;;24.42;16.30;;;;;;;23.87;64.42;99788.81;5038416;28;20029;-96
2021/07/24 12:34:36;;;;;;;21.27;14.65;;;;;;;23.85;65.14;99791.69;5041287;28;20381;-96
2021/07/24 12:37:02;;;;;;;16.45;13.88;;;;;;;23.71;64.14;99796.19;5035922;28;20092;-95
2021/07/24 12:39:32;;;;;;;18.27;14.63;;;;;;;23.99;64.51;99794.38;5037580;28;20033;-95
2021/07/24 12:42:03;;;;;;;19.45;15.32;;;;;;;23.72;64.71;99797.88;5036994;28;20091;-95
2021/07/24 12:44:30;;;;;;;18.27;15.57;;;;;;;23.88;64.55;99798.53;5035820;28;20467;-95
2021/07/24 12:47:16;;;;;;;26.10;17.33;;;;;;;24.20;63.45;99798.72;5033932;28;20160;-96